Time;durP1;ratioP1;P1;durP2;ratioP2;P2;SDS_P1;SDS_P2;PMS_P1;PMS_P2;Temp;Humidity;BMP_temperature;BMP_pressure;BME280_temperature;BME280_humidity;BME280_pressure;Samples;Min_cycle;Max_cycle;Signal;HPM_P1;HPM_P2
2021/01/04 00:01:51;;;;;;;74.27;35.75;;;;;;;0.89;100.00;101088.78;1849619;77;20996;-73
2021/01/04 00:04:34;;;;;;;65.28;33.48;;;;;;;0.91;100.00;101091.78;1848608;77;20942;-74
2021/01/04 00:07:29;;;;;;;72.55;35.03;;;;;;;0.94;100.00;101084.09;1833465;77;21266;-73
2021/01/04 00:10:54;;;;;;;65.32;34.10;;;;;;;0.96;100.00;101086.66;1849048;77;21519;-74
2021/01/04 00:13:34;;;;;;;66.28;33.02;;;;;;;0.99;100.00;101087.52;1849081;77;20922;-73
2021/01/04 00:16:13;;;;;;;70.75;34.85;;;;;;;1.02;100.00;101085.80;1849060;77;20910;-73
2021/01/04 00:18:45;;;;;;;70.40;33.50;;;;;;;1.05;100.00;101084.09;1847061;77;21072;-73
2021/01/04 00:21:27;;;;;;;67.15;32.55;;;;;;;1.07;100.00;101078.97;1849189;77;22194;-73
2021/01/04 00:24:12;;;;;;;76.40;36.63;;;;;;;1.11;100.00;101093.07;1849102;77;21538;-74
2021/01/04 00:26:58;;;;;;;73.50;36.08;;;;;;;1.14;100.00;101093.07;1849243;77;20906;-74
2021/01/04 00:29:26;;;;;;;61.33;30.27;;;;;;;1.18;100.00;101084.95;1848995;77;21029;-74
2021/01/04 00:32:00;;;;;;;60.03;31.77;;;;;;;1.20;100.00;101081.95;1849153;77;21271;-74
2021/01/04 00:34:40;;;;;;;63.83;32.38;;;;;;;1.22;100.00;101075.08;1849087;77;21132;-74
2021/01/04 00:37:29;;;;;;;57.33;29.07;;;;;;;1.23;100.00;101078.92;1848961;77;20954;-74
2021/01/04 00:40:18;;;;;;;58.10;30.45;;;;;;;1.25;99.92;101069.95;1849093;77;20930;-76
2021/01/04 00:42:53;;;;;;;50.83;26.52;;;;;;;1.25;99.86;101059.25;1845657;77;21478;-73
2021/01/04 00:45:29;;;;;;;60.05;31.70;;;;;;;1.24;99.83;101049.84;1849020;77;20981;-73
2021/01/04 00:48:31;;;;;;;62.00;30.52;;;;;;;1.24;99.80;101054.13;1849074;77;21190;-75
2021/01/04 00:51:24;;;;;;;49.48;27.13;;;;;;;1.24;99.81;101052.84;1846125;77;21416;-74
2021/01/04 00:53:52;;;;;;;48.23;28.05;;;;;;;1.26;99.86;101054.55;1838340;78;20978;-74
2021/01/04 00:57:17;;;;;;;46.68;26.25;;;;;;;1.26;99.79;101048.56;1838466;78;21432;-74
2021/01/04 01:00:13;;;;;;;44.77;23.57;;;;;;;1.25;99.81;101046.42;1838373;77;20942;-74
2021/01/04 01:03:05;;;;;;;45.70;26.07;;;;;;;1.26;99.87;101043.43;1838531;78;21056;-75
2021/01/04 01:05:45;;;;;;;46.75;26.07;;;;;;;1.24;99.96;101038.30;1827034;78;20929;-74
2021/01/04 01:08:25;;;;;;;48.13;25.25;;;;;;;1.25;100.00;101046.85;1808811;78;20946;-73
2021/01/04 01:11:10;;;;;;;45.58;24.92;;;;;;;1.26;100.00;101044.28;1838104;78;21017;-73
2021/01/04 01:13:53;;;;;;;47.25;24.90;;;;;;;1.27;100.00;101044.71;1838484;78;21574;-73
2021/01/04 01:17:04;;;;;;;42.98;24.47;;;;;;;1.27;100.00;101036.16;1808990;78;21502;-74
2021/01/04 01:19:47;;;;;;;44.75;24.47;;;;;;;1.28;100.00;101038.72;1838396;78;21480;-74
2021/01/04 01:22:18;;;;;;;43.90;24.00;;;;;;;1.30;100.00;101044.70;1838374;78;20930;-73
2021/01/04 01:24:48;;;;;;;38.63;22.87;;;;;;;1.30;100.00;101040.00;1809771;78;20966;-73
2021/01/04 01:27:43;;;;;;;37.95;22.52;;;;;;;1.31;100.00;101036.58;1838328;78;21594;-73
2021/01/04 01:30:59;;;;;;;41.92;23.77;;;;;;;1.30;100.00;101035.73;1838470;78;22304;-73
2021/01/04 01:33:41;;;;;;;35.43;20.92;;;;;;;1.30;100.00;101028.45;1838353;78;21017;-73
2021/01/04 01:36:38;;;;;;;39.95;22.60;;;;;;;1.29;100.00;101027.61;1838028;78;20938;-74
2021/01/04 01:39:24;;;;;;;31.95;18.37;;;;;;;1.29;100.00;101030.59;1838467;78;21044;-73
2021/01/04 01:42:48;;;;;;;36.67;21.67;;;;;;;1.30;100.00;101028.03;1835114;78;20974;-74
2021/01/04 01:45:26;;;;;;;32.67;19.60;;;;;;;1.31;100.00;101031.02;1809192;78;21527;-74
2021/01/04 01:48:24;;;;;;;31.33;18.82;;;;;;;1.33;100.00;101026.74;1809590;77;20926;-75
2021/01/04 01:51:10;;;;;;;29.52;18.35;;;;;;;1.34;100.00;101022.03;1781819;77;21001;-74
2021/01/04 01:54:04;;;;;;;32.23;18.55;;;;;;;1.37;100.00;101024.17;1850414;77;21004;-74
2021/01/04 01:57:08;;;;;;;26.87;16.52;;;;;;;1.38;100.00;101033.58;1857997;77;21068;-74
2021/01/04 02:00:18;;;;;;;26.17;16.97;;;;;;;1.39;100.00;101027.16;1857958;77;21663;-73
2021/01/04 02:03:02;;;;;;;28.38;16.50;;;;;;;1.38;100.00;101021.59;1857847;77;21031;-74
2021/01/04 02:05:45;;;;;;;25.30;16.70;;;;;;;1.41;100.00;101028.01;1857940;77;20913;-73
2021/01/04 02:08:22;;;;;;;25.68;15.60;;;;;;;1.43;100.00;101029.28;1857960;77;20878;-74
2021/01/04 02:10:57;;;;;;;25.10;17.12;;;;;;;1.45;100.00;101020.73;1858158;77;20957;-73
2021/01/04 02:13:52;;;;;;;24.45;15.68;;;;;;;1.44;99.90;101019.02;1858006;77;21417;-73
2021/01/04 02:16:53;;;;;;;27.48;16.87;;;;;;;1.46;99.79;101025.00;1856280;77;20984;-74
2021/01/04 02:20:03;;;;;;;26.60;16.52;;;;;;;1.48;99.82;101023.29;1856973;77;20926;-73
2021/01/04 02:22:46;;;;;;;23.67;16.77;;;;;;;1.50;99.88;101020.29;1858005;77;20921;-73
2021/01/04 02:25:15;;;;;;;24.12;16.27;;;;;;;1.50;99.76;101021.57;1857825;77;21048;-74
2021/01/04 02:27:48;;;;;;;27.45;17.32;;;;;;;1.52;99.78;101016.44;1857972;77;22175;-75
2021/01/04 02:30:19;;;;;;;24.95;16.42;;;;;;;1.53;99.83;101010.44;1857832;77;21028;-74
2021/01/04 02:32:48;;;;;;;24.95;15.68;;;;;;;1.55;99.79;101008.30;1857930;77;20969;-74
2021/01/04 02:35:17;;;;;;;25.35;17.77;;;;;;;1.55;99.74;101004.45;1857855;77;21032;-74
2021/01/04 02:37:45;;;;;;;29.57;19.12;;;;;;;1.57;99.68;101007.00;1857966;77;20917;-73
2021/01/04 02:44:03;;;;;;;26.62;16.27;;;;;;;1.60;99.59;101010.84;1857817;77;20938;-73
2021/01/04 02:46:32;;;;;;;25.57;17.17;;;;;;;1.58;99.52;101010.00;1857883;77;21004;-74
2021/01/04 02:49:20;;;;;;;22.35;15.30;;;;;;;1.56;99.47;101002.73;1857976;77;21561;-74
2021/01/04 02:51:55;;;;;;;29.95;19.80;;;;;;;1.56;99.51;101008.72;1854622;77;20890;-74
2021/01/04 02:54:27;;;;;;;45.73;26.40;;;;;;;1.56;99.53;101015.56;1848984;77;21203;-74
2021/01/04 02:57:10;;;;;;;40.73;24.12;;;;;;;1.56;99.59;101011.72;1848950;77;21016;-74
2021/01/04 02:59:44;;;;;;;36.98;22.40;;;;;;;1.57;99.50;101012.14;1849012;77;20949;-73
2021/01/04 03:02:24;;;;;;;33.55;20.35;;;;;;;1.56;99.56;101009.15;1848927;77;20925;-74
2021/01/04 03:04:52;;;;;;;32.98;19.30;;;;;;;1.57;99.57;101011.71;1848974;77;20933;-74
2021/01/04 03:07:30;;;;;;;24.87;16.42;;;;;;;1.57;99.55;101006.58;1848939;77;21190;-74
2021/01/04 03:10:00;;;;;;;25.82;16.55;;;;;;;1.57;99.45;101002.73;1848899;77;21020;-74
2021/01/04 03:12:34;;;;;;;28.07;18.25;;;;;;;1.56;99.41;100993.75;1848936;77;20974;-74
2021/01/04 03:15:20;;;;;;;27.82;17.48;;;;;;;1.54;99.43;101002.73;1849037;77;21456;-74
2021/01/04 03:18:05;;;;;;;30.90;20.02;;;;;;;1.53;99.39;100998.46;1848945;77;20926;-73
2021/01/04 03:20:33;;;;;;;24.50;15.35;;;;;;;1.52;99.46;100999.32;1849089;77;21404;-74
2021/01/04 03:23:01;;;;;;;33.78;22.48;;;;;;;1.53;99.52;101009.16;1848961;77;20929;-74
2021/01/04 03:25:47;;;;;;;34.53;23.73;;;;;;;1.51;99.53;101005.31;1848901;77;20969;-73
2021/01/04 03:28:28;;;;;;;26.90;20.12;;;;;;;1.50;99.57;101000.19;1847341;77;20992;-74
2021/01/04 03:30:57;;;;;;;35.23;21.02;;;;;;;1.50;99.62;101004.03;1848807;77;21048;-74
2021/01/04 03:33:26;;;;;;;29.87;19.62;;;;;;;1.50;99.72;101006.60;1848917;77;21095;-75
2021/01/04 03:35:54;;;;;;;49.53;30.60;;;;;;;1.50;99.69;101004.89;1848951;77;21510;-73
2021/01/04 03:38:22;;;;;;;52.27;30.68;;;;;;;1.50;99.74;101005.31;1848998;77;21591;-74
2021/01/04 03:40:51;;;;;;;35.92;22.22;;;;;;;1.50;99.83;101010.45;1849038;77;20934;-74
2021/01/04 03:43:19;;;;;;;47.65;28.92;;;;;;;1.51;99.88;101005.31;1849121;77;20969;-73
2021/01/04 03:45:47;;;;;;;36.17;23.00;;;;;;;1.52;99.90;101002.31;1849066;77;21594;-74
2021/01/04 03:48:16;;;;;;;31.10;20.00;;;;;;;1.54;100.00;101008.30;1825500;77;21003;-74
2021/01/04 03:50:44;;;;;;;34.83;23.25;;;;;;;1.54;99.93;101007.02;1848948;77;20965;-74
2021/01/04 03:53:12;;;;;;;39.50;27.32;;;;;;;1.55;99.99;101016.42;1840981;77;20899;-75
2021/01/04 03:55:41;;;;;;;29.92;21.10;;;;;;;1.55;100.00;101007.02;1838412;77;20997;-73
2021/01/04 03:58:10;;;;;;;35.48;24.60;;;;;;;1.57;100.00;101003.16;1838426;77;21281;-74
2021/01/04 04:00:38;;;;;;;29.80;20.17;;;;;;;1.58;100.00;101009.57;1838293;78;21009;-73
2021/01/04 04:03:07;;;;;;;27.32;18.92;;;;;;;1.57;100.00;101002.73;1838404;78;21013;-74
2021/01/04 04:05:35;;;;;;;38.45;23.42;;;;;;;1.58;100.00;100998.45;1838379;78;20990;-74
2021/01/04 04:08:04;;;;;;;35.98;24.85;;;;;;;1.59;100.00;101006.14;1838461;78;20920;-73
2021/01/04 04:10:33;;;;;;;40.10;22.93;;;;;;;1.61;100.00;101008.67;1838372;77;21191;-76
2021/01/04 04:13:01;;;;;;;29.52;20.82;;;;;;;1.61;100.00;101007.39;1838305;78;20899;-74
2021/01/04 04:15:32;;;;;;;30.77;19.37;;;;;;;1.63;100.00;101009.09;1808788;78;20997;-74
2021/01/04 04:18:00;;;;;;;35.50;22.75;;;;;;;1.65;100.00;101015.08;1838350;78;20950;-74
2021/01/04 04:20:34;;;;;;;26.73;17.73;;;;;;;1.66;100.00;101019.78;1838468;78;21029;-75
2021/01/04 04:23:02;;;;;;;25.10;17.02;;;;;;;1.65;99.99;101017.64;1838308;78;20926;-75
2021/01/04 04:25:32;;;;;;;29.07;18.45;;;;;;;1.67;100.00;101013.78;1838312;78;21479;-74
2021/01/04 04:28:00;;;;;;;25.72;16.77;;;;;;;1.69;99.98;101010.78;1838456;78;20926;-74
2021/01/04 04:30:29;;;;;;;25.60;17.37;;;;;;;1.69;99.93;101009.50;1809039;78;20985;-75
2021/01/04 04:32:59;;;;;;;26.93;18.05;;;;;;;1.69;99.85;101005.65;1838357;78;21045;-73
2021/01/04 04:35:28;;;;;;;21.35;15.40;;;;;;;1.70;99.81;101002.66;1838410;78;21129;-74
2021/01/04 04:37:59;;;;;;;24.00;16.52;;;;;;;1.70;99.82;100998.80;1838305;78;21056;-73
2021/01/04 04:40:33;;;;;;;27.10;17.57;;;;;;;1.68;99.73;100996.23;1838481;77;20938;-73
2021/01/04 04:43:11;;;;;;;28.92;19.35;;;;;;;1.68;99.71;100993.67;1838367;78;21111;-74
2021/01/04 04:45:41;;;;;;;29.75;22.32;;;;;;;1.67;99.78;100997.95;1838414;78;20974;-74
2021/01/04 04:48:38;;;;;;;42.23;29.10;;;;;;;1.69;99.83;100995.38;1838313;78;21194;-74
2021/01/04 04:51:56;;;;;;;47.50;34.00;;;;;;;1.70;99.77;100985.97;1838169;77;21049;-73
2021/01/04 04:54:47;;;;;;;43.05;28.62;;;;;;;1.71;99.67;100980.82;1854994;77;20914;-75
2021/01/04 04:57:39;;;;;;;71.40;40.15;;;;;;;1.70;99.65;100981.69;1854907;77;20917;-75
2021/01/04 05:00:34;;;;;;;83.05;46.98;;;;;;;1.68;99.57;100978.27;1855035;77;21035;-73
2021/01/04 05:03:38;;;;;;;64.15;38.67;;;;;;;1.67;99.62;100974.84;1854983;77;21197;-75
2021/01/04 05:06:32;;;;;;;53.83;32.45;;;;;;;1.66;99.62;100973.14;1854923;77;21040;-74
2021/01/04 05:09:26;;;;;;;38.05;25.75;;;;;;;1.66;99.60;100971.86;1854996;77;21017;-75
2021/01/04 05:12:11;;;;;;;54.27;38.33;;;;;;;1.67;99.70;100972.70;1837604;77;20917;-75
2021/01/04 05:14:45;;;;;;;48.08;33.48;;;;;;;1.71;100.00;100968.41;1852812;77;20963;-75
2021/01/04 05:18:11;;;;;;;48.17;32.73;;;;;;;1.76;100.00;100970.53;1854851;77;22185;-75
2021/01/04 05:21:03;;;;;;;51.13;31.48;;;;;;;1.82;100.00;100966.22;1854904;77;20949;-75
2021/01/04 05:24:16;;;;;;;52.10;34.15;;;;;;;1.96;100.00;100966.15;1854958;77;21486;-74
2021/01/04 05:27:26;;;;;;;38.13;25.85;;;;;;;2.08;100.00;100967.77;1854947;77;21637;-74
2021/01/04 05:30:33;;;;;;;37.42;24.90;;;;;;;2.17;100.00;100961.28;1850034;77;20922;-74
2021/01/04 05:33:21;;;;;;;42.30;27.55;;;;;;;2.23;99.77;100968.95;1854743;77;21086;-75
2021/01/04 05:35:59;;;;;;;40.28;28.87;;;;;;;2.25;98.94;100962.95;1854926;77;21523;-74
2021/01/04 05:38:38;;;;;;;34.00;23.70;;;;;;;2.23;98.42;100975.38;1855068;77;28224;-75
2021/01/04 05:41:33;;;;;;;33.50;24.05;;;;;;;2.19;98.06;100977.55;1835049;77;20977;-74
2021/01/04 05:44:24;;;;;;;33.67;22.58;;;;;;;2.16;97.92;100977.56;1854957;77;20906;-74
2021/01/04 05:47:05;;;;;;;45.03;30.88;;;;;;;2.12;97.81;100978.02;1854908;77;20929;-76
2021/01/04 05:49:42;;;;;;;49.50;32.23;;;;;;;2.10;97.81;100973.31;1854858;77;21009;-75
2021/01/04 05:52:11;;;;;;;54.80;33.08;;;;;;;2.11;97.71;100991.72;1854608;77;20973;-74
2021/01/04 05:54:40;;;;;;;71.65;40.85;;;;;;;2.10;97.67;100990.45;1848961;77;21554;-77
2021/01/04 05:57:13;;;;;;;60.20;37.15;;;;;;;2.09;97.61;100988.30;1848806;77;21338;-76
2021/01/04 06:02:35;;;;;;;66.45;41.80;;;;;;;2.11;97.62;101011.42;1769584;79;21046;-76
2021/01/04 06:05:14;;;;;;;57.03;35.28;;;;;;;2.12;97.77;101005.42;1769225;81;21046;-75
2021/01/04 06:07:45;;;;;;;49.63;30.43;;;;;;;2.18;98.14;101012.66;1738881;81;21038;-75
2021/01/04 06:10:26;;;;;;;44.85;28.98;;;;;;;2.23;97.94;101014.78;1750813;81;20931;-75
2021/01/04 06:12:56;;;;;;;42.95;27.65;;;;;;;2.29;97.92;101017.74;1760141;81;21598;-77
2021/01/04 06:15:27;;;;;;;40.98;27.07;;;;;;;2.33;97.62;101023.28;1773298;79;20985;-76
2021/01/04 06:18:12;;;;;;;44.95;28.85;;;;;;;2.35;97.33;101017.70;1770822;79;21034;-70
2021/01/04 06:20:54;;;;;;;46.90;28.35;;;;;;;2.34;97.01;101017.28;1697892;83;21420;-73
2021/01/04 06:23:31;;;;;;;49.90;30.00;;;;;;;2.32;96.77;101007.45;1701050;83;21706;-72
2021/01/04 06:26:15;;;;;;;40.70;26.50;;;;;;;2.31;96.66;101010.45;1686186;83;22180;-74
2021/01/04 06:29:03;;;;;;;47.78;28.45;;;;;;;2.34;96.56;101003.14;1833204;76;22685;-71
2021/01/04 06:31:48;;;;;;;51.48;28.40;;;;;;;2.28;96.46;101000.19;1741171;81;21564;-74
2021/01/04 06:34:29;;;;;;;45.95;28.12;;;;;;;2.25;96.36;101004.06;1748028;81;21386;-75
2021/01/04 06:37:04;;;;;;;47.78;28.57;;;;;;;2.23;96.33;101003.22;1795463;79;21594;-73
2021/01/04 06:39:34;;;;;;;43.80;25.82;;;;;;;2.25;96.79;101005.77;1801993;77;21072;-74
2021/01/04 06:42:14;;;;;;;47.80;27.52;;;;;;;2.27;96.51;101006.19;1789815;79;21061;-73
2021/01/04 06:45:05;;;;;;;48.50;27.98;;;;;;;2.25;96.35;101004.48;1786692;77;21027;-72
2021/01/04 06:47:47;;;;;;;48.08;28.75;;;;;;;2.24;96.36;101010.49;1814474;79;21245;-75
2021/01/04 06:50:42;;;;;;;52.30;30.20;;;;;;;2.24;96.36;101011.77;1812031;77;21047;-74
2021/01/04 06:53:37;;;;;;;47.88;30.17;;;;;;;2.22;96.31;101004.50;1815016;79;20965;-72
2021/01/04 06:56:36;;;;;;;51.65;29.95;;;;;;;2.23;96.31;101001.93;1741354;82;21058;-70
2021/01/04 06:59:27;;;;;;;55.45;32.30;;;;;;;2.21;96.22;101004.94;1757078;81;21008;-73
2021/01/04 07:02:17;;;;;;;51.30;30.48;;;;;;;2.20;96.31;101001.95;1820304;77;21249;-72
2021/01/04 07:05:03;;;;;;;58.13;32.50;;;;;;;2.20;96.28;101004.95;1797250;77;21502;-72
2021/01/04 07:08:05;;;;;;;64.50;38.63;;;;;;;2.21;96.34;100995.09;1794751;77;21539;-71
2021/01/04 07:10:42;;;;;;;73.22;39.20;;;;;;;2.20;96.24;100996.81;1803873;79;20993;-70
2021/01/04 07:13:22;;;;;;;90.53;52.55;;;;;;;2.21;96.32;100991.23;1810637;79;21001;-70
2021/01/04 07:16:07;;;;;;;69.60;40.17;;;;;;;2.21;96.19;100991.23;1806859;77;22076;-70
2021/01/04 07:19:04;;;;;;;83.05;48.35;;;;;;;2.20;96.22;100992.10;1801311;79;21173;-70
2021/01/04 07:22:18;;;;;;;103.22;59.33;;;;;;;2.19;96.20;100995.09;1757382;79;24199;-73
2021/01/04 07:25:43;;;;;;;91.63;50.33;;;;;;;2.18;96.21;100993.83;1799854;79;21100;-73
2021/01/04 07:28:45;;;;;;;93.25;52.73;;;;;;;2.16;96.11;100999.41;1737750;81;20939;-73
2021/01/04 07:31:27;;;;;;;90.50;46.88;;;;;;;2.13;96.31;100990.00;1705316;81;21275;-71
2021/01/04 07:34:22;;;;;;;67.45;38.45;;;;;;;2.12;96.33;100998.56;1738882;81;21694;-73
2021/01/04 07:37:28;;;;;;;60.50;35.75;;;;;;;2.14;96.50;100998.12;1791441;79;20974;-69
2021/01/04 07:40:23;;;;;;;60.95;35.38;;;;;;;2.15;96.38;100992.56;1791356;79;20926;-70
2021/01/04 07:43:46;;;;;;;62.55;34.40;;;;;;;2.14;96.39;100994.70;1806875;78;20955;-69
2021/01/04 07:47:03;;;;;;;70.42;36.30;;;;;;;2.14;96.39;100981.43;1828937;78;21195;-70
2021/01/04 07:50:10;;;;;;;58.00;31.77;;;;;;;2.14;96.46;100975.00;1780106;79;20950;-70
2021/01/04 07:53:04;;;;;;;62.25;34.92;;;;;;;2.14;96.70;100979.29;1796461;78;21090;-70
2021/01/04 07:56:03;;;;;;;61.63;34.43;;;;;;;2.19;96.83;100980.11;1718953;82;21096;-78
2021/01/04 07:58:44;;;;;;;63.10;33.00;;;;;;;2.23;96.66;100986.52;1822180;78;21022;-75
2021/01/04 08:01:39;;;;;;;60.58;32.90;;;;;;;2.25;96.54;100983.94;1802605;79;21201;-77
2021/01/04 08:04:58;;;;;;;53.87;33.35;;;;;;;2.27;96.48;100977.06;1798492;78;21832;-74
2021/01/04 08:07:48;;;;;;;55.60;33.45;;;;;;;2.28;96.40;100980.06;1790202;78;21072;-71
2021/01/04 08:10:29;;;;;;;64.37;34.90;;;;;;;2.30;96.36;100989.47;1813833;78;22147;-74
2021/01/04 08:13:17;;;;;;;63.02;37.42;;;;;;;2.31;96.28;100995.45;1770657;80;21223;-75
2021/01/04 08:16:00;;;;;;;52.73;31.42;;;;;;;2.33;96.38;100992.45;1796571;78;21205;-76
2021/01/04 08:18:29;;;;;;;60.75;35.17;;;;;;;2.36;96.28;101001.42;1836401;78;21032;-76
2021/01/04 08:21:09;;;;;;;53.08;32.80;;;;;;;2.39;96.18;101006.97;1778115;78;22295;-76
2021/01/04 08:23:58;;;;;;;51.68;30.32;;;;;;;2.41;96.12;101008.64;1837346;78;21715;-72
2021/01/04 08:27:06;;;;;;;56.02;33.33;;;;;;;2.42;95.85;101009.06;1836267;77;20988;-73
2021/01/04 08:30:10;;;;;;;54.20;31.42;;;;;;;2.43;95.98;101009.91;1837313;76;22118;-75
2021/01/04 08:32:52;;;;;;;55.12;31.45;;;;;;;2.45;95.76;101005.19;1820936;78;21101;-79
2021/01/04 08:35:38;;;;;;;57.08;35.55;;;;;;;2.46;95.64;101017.17;1832213;78;21064;-77
2021/01/04 08:38:32;;;;;;;54.08;30.15;;;;;;;2.48;95.61;101022.30;1820699;78;21038;-79
2021/01/04 08:41:11;;;;;;;62.65;35.20;;;;;;;2.49;95.53;101020.16;1836508;77;21073;-76
2021/01/04 08:43:43;;;;;;;52.83;31.25;;;;;;;2.48;95.45;101023.16;1823614;78;21192;-79
2021/01/04 08:46:28;;;;;;;48.13;29.85;;;;;;;2.50;95.73;101020.14;1835792;78;21018;-79
2021/01/04 08:49:04;;;;;;;51.73;30.97;;;;;;;2.52;95.61;101020.98;1827473;78;21013;-80
2021/01/04 08:51:36;;;;;;;57.55;33.15;;;;;;;2.54;95.42;101016.69;1775183;78;21069;-77
2021/01/04 08:54:25;;;;;;;59.98;33.50;;;;;;;2.55;95.40;101024.83;1798339;78;20990;-78
2021/01/04 08:57:14;;;;;;;49.42;29.77;;;;;;;2.57;95.41;101033.81;1793444;78;21382;-77
2021/01/04 09:00:00;;;;;;;48.65;30.20;;;;;;;2.59;95.39;101035.94;1799905;78;21009;-72
2021/01/04 09:02:36;;;;;;;46.40;27.50;;;;;;;2.60;95.20;101042.36;1783416;78;21160;-76
2021/01/04 09:05:41;;;;;;;51.88;31.23;;;;;;;2.62;95.45;101041.06;1813759;78;21049;-80
2021/01/04 09:08:31;;;;;;;53.42;31.15;;;;;;;2.62;95.33;101044.92;1795824;79;21085;-82
2021/01/04 09:11:06;;;;;;;55.28;29.23;;;;;;;2.64;95.16;101043.19;1815227;78;21353;-81
2021/01/04 09:13:38;;;;;;;58.92;32.33;;;;;;;2.65;95.16;101050.89;1812006;78;21014;-74
2021/01/04 09:16:22;;;;;;;54.10;30.88;;;;;;;2.69;95.68;101038.87;1800926;78;21034;-84
2021/01/04 09:18:54;;;;;;;51.70;29.25;;;;;;;2.73;95.42;101046.13;1806789;78;21040;-76
2021/01/04 09:21:40;;;;;;;63.42;38.88;;;;;;;2.74;95.10;101040.97;1818065;77;21093;-75
2021/01/04 09:24:25;;;;;;;60.67;36.23;;;;;;;2.75;94.89;101031.54;1812273;78;21239;-77
2021/01/04 09:27:00;;;;;;;44.23;27.42;;;;;;;2.76;94.86;101031.53;1815455;78;21603;-80
2021/01/04 09:29:33;;;;;;;53.58;31.70;;;;;;;2.77;94.66;101029.38;1788347;78;21166;-78
2021/01/04 09:32:09;;;;;;;54.18;31.20;;;;;;;2.78;94.60;101029.80;1780133;79;21104;-79
2021/01/04 09:34:37;;;;;;;54.80;32.53;;;;;;;2.80;94.55;101029.78;1822397;78;21108;-75
2021/01/04 09:37:21;;;;;;;47.25;28.42;;;;;;;2.81;94.53;101026.31;1797585;78;21356;-73
2021/01/04 09:40:08;;;;;;;52.17;30.65;;;;;;;2.86;94.60;101027.13;1885683;76;22743;-75
2021/01/04 09:42:37;;;;;;;54.18;30.85;;;;;;;2.83;94.56;101025.44;1859568;77;21656;-75
2021/01/04 09:45:17;;;;;;;51.85;30.72;;;;;;;2.86;94.49;101025.84;1813919;79;21194;-75
2021/01/04 09:47:52;;;;;;;51.83;31.00;;;;;;;2.86;94.44;101025.41;1806085;79;21386;-80
2021/01/04 09:50:30;;;;;;;53.42;29.87;;;;;;;2.87;94.49;101036.55;1814538;79;21088;-71
2021/01/04 09:53:21;;;;;;;48.95;28.75;;;;;;;2.88;94.41;101040.84;1786065;79;21480;-72
2021/01/04 09:55:50;;;;;;;48.02;27.70;;;;;;;2.89;94.43;101042.55;1715931;82;21071;-79
2021/01/04 09:58:19;;;;;;;52.95;29.20;;;;;;;2.89;94.22;101053.69;1716402;82;22702;-73
2021/01/04 10:00:48;;;;;;;58.85;32.88;;;;;;;2.87;94.22;101045.56;1754323;79;21828;-73
2021/01/04 10:03:19;;;;;;;62.25;33.58;;;;;;;2.86;94.15;101038.28;1733130;81;21064;-72
2021/01/04 10:05:49;;;;;;;58.17;34.30;;;;;;;2.84;94.21;101031.00;1775482;80;21037;-75
2021/01/04 10:08:25;;;;;;;66.47;38.33;;;;;;;2.84;94.25;101034.86;1720056;80;20974;-75
2021/01/04 10:11:09;;;;;;;67.27;35.20;;;;;;;2.84;94.25;101029.72;1765336;80;21466;-73
2021/01/04 10:13:39;;;;;;;73.07;39.10;;;;;;;2.86;94.26;101027.13;1758468;81;21052;-76
2021/01/04 10:16:11;;;;;;;86.45;41.33;;;;;;;2.86;94.29;101030.56;1758043;81;21159;-75
2021/01/04 10:19:06;;;;;;;76.87;42.83;;;;;;;2.87;94.34;101031.41;1816381;78;21971;-75
2021/01/04 10:21:46;;;;;;;66.30;33.40;;;;;;;2.88;94.42;101016.40;1779032;79;20979;-73
2021/01/04 10:24:22;;;;;;;62.73;33.38;;;;;;;2.87;94.40;101024.55;1816627;77;21231;-73
2021/01/04 10:26:52;;;;;;;64.70;32.60;;;;;;;2.83;94.72;101019.02;1798650;79;20978;-72
2021/01/04 10:29:26;;;;;;;63.70;34.45;;;;;;;2.84;94.95;101023.72;1783400;79;21120;-74
2021/01/04 10:32:19;;;;;;;66.55;35.13;;;;;;;2.84;94.94;101024.58;1763233;80;21644;-74
2021/01/04 10:34:53;;;;;;;53.42;27.55;;;;;;;2.89;94.93;101025.83;1875005;76;22249;-75
2021/01/04 10:37:30;;;;;;;57.80;30.48;;;;;;;2.83;94.92;101018.16;1841890;78;20914;-70
2021/01/04 10:40:11;;;;;;;54.70;30.27;;;;;;;2.80;95.00;101017.75;1844147;76;21356;-70
2021/01/04 10:42:42;;;;;;;66.55;30.95;;;;;;;2.77;95.07;101013.95;1808828;78;21646;-77
2021/01/04 10:45:19;;;;;;;65.35;33.45;;;;;;;2.76;95.34;101018.67;1821891;78;20881;-76
2021/01/04 10:47:56;;;;;;;67.95;33.70;;;;;;;2.77;95.35;101019.52;1826910;78;20937;-77
2021/01/04 10:50:35;;;;;;;69.27;33.20;;;;;;;2.77;95.61;101012.66;1827064;77;20962;-77
2021/01/04 10:53:07;;;;;;;68.72;32.40;;;;;;;2.80;95.75;101005.35;1831610;77;21143;-77
2021/01/04 10:55:57;;;;;;;57.88;30.35;;;;;;;2.81;95.76;101007.88;1833551;77;21383;-74
2021/01/04 10:58:31;;;;;;;58.73;30.57;;;;;;;2.81;95.78;101015.59;1825812;77;21042;-75
2021/01/04 11:01:06;;;;;;;59.83;29.20;;;;;;;2.81;95.81;101019.45;1826577;78;21018;-73
2021/01/04 11:03:48;;;;;;;60.70;31.27;;;;;;;2.80;95.89;101017.75;1826864;76;21185;-73
2021/01/04 11:06:26;;;;;;;52.80;28.62;;;;;;;2.77;95.92;101014.38;1842245;77;21683;-76
2021/01/04 11:08:54;;;;;;;59.08;29.90;;;;;;;2.77;96.13;101013.09;1825994;76;21032;-76
2021/01/04 11:11:34;;;;;;;63.10;33.50;;;;;;;2.77;96.20;101019.52;1870711;76;21028;-77
2021/01/04 11:14:10;;;;;;;66.85;34.95;;;;;;;2.78;96.20;101010.94;1861585;76;21041;-75
2021/01/04 11:16:49;;;;;;;73.80;35.98;;;;;;;2.76;96.19;101012.67;1826717;77;21180;-75
2021/01/04 11:19:29;;;;;;;68.65;35.63;;;;;;;2.75;96.29;101005.39;1804794;77;22237;-74
2021/01/04 11:22:15;;;;;;;81.22;39.60;;;;;;;2.74;96.33;101001.11;1860155;77;21029;-75
2021/01/04 11:24:44;;;;;;;74.07;36.55;;;;;;;2.73;96.40;101005.84;1830287;77;21013;-75
2021/01/04 11:27:12;;;;;;;79.00;38.05;;;;;;;2.73;96.55;101005.84;1776526;80;21045;-75
2021/01/04 11:29:42;;;;;;;60.25;31.27;;;;;;;2.74;96.65;101005.41;1759999;81;21064;-80
2021/01/04 11:32:12;;;;;;;62.58;33.38;;;;;;;2.75;96.81;101004.54;1742821;82;21214;-77
2021/01/04 11:34:44;;;;;;;62.43;32.58;;;;;;;2.76;96.78;101003.23;1727207;81;21571;-75
2021/01/04 11:37:17;;;;;;;68.60;32.60;;;;;;;2.76;96.88;101007.09;1754013;81;22034;-75
2021/01/04 11:39:47;;;;;;;63.50;33.28;;;;;;;2.75;96.64;101002.82;1755862;80;21473;-76
2021/01/04 11:42:15;;;;;;;60.40;31.45;;;;;;;2.72;96.76;101006.70;1760750;81;21186;-77
2021/01/04 11:44:44;;;;;;;62.10;32.85;;;;;;;2.75;97.10;101013.11;1813234;79;21124;-75
2021/01/04 11:47:12;;;;;;;62.30;32.03;;;;;;;2.80;97.13;101007.92;1812498;79;21008;-76
2021/01/04 11:49:40;;;;;;;63.30;33.67;;;;;;;2.82;96.78;101008.73;1831970;77;21025;-76
2021/01/04 11:52:09;;;;;;;66.97;35.25;;;;;;;2.82;96.75;101008.30;1842685;77;21073;-75
2021/01/04 11:54:43;;;;;;;64.27;34.08;;;;;;;2.82;96.68;101004.44;1774445;80;21105;-76
2021/01/04 11:57:13;;;;;;;64.95;34.33;;;;;;;2.85;96.54;101007.42;1787159;80;21372;-75
2021/01/04 11:59:42;;;;;;;61.60;33.42;;;;;;;2.83;96.48;101008.72;1783282;80;21638;-74
2021/01/04 12:02:10;;;;;;;70.47;36.40;;;;;;;2.85;96.52;101004.85;1765623;80;21102;-76
2021/01/04 12:04:40;;;;;;;65.35;37.55;;;;;;;2.87;96.30;101006.98;1772900;80;21729;-74
2021/01/04 12:07:09;;;;;;;67.32;36.83;;;;;;;2.88;96.03;101013.83;1791804;80;21162;-77
2021/01/04 12:09:38;;;;;;;63.48;34.70;;;;;;;2.90;96.18;101017.24;1792618;80;21239;-76
2021/01/04 12:12:09;;;;;;;58.20;32.73;;;;;;;2.89;95.82;101009.95;1767322;80;21140;-72
2021/01/04 12:14:40;;;;;;;66.10;37.42;;;;;;;2.87;95.78;101013.41;1764161;80;21017;-74
2021/01/04 12:17:15;;;;;;;66.15;36.93;;;;;;;2.85;95.78;101012.13;1760272;80;21697;-72
2021/01/04 12:19:44;;;;;;;67.45;34.43;;;;;;;2.83;95.76;101020.30;1834702;77;21170;-75
2021/01/04 12:22:12;;;;;;;71.22;40.03;;;;;;;2.85;96.38;101026.72;1842741;77;21801;-72
2021/01/04 12:24:47;;;;;;;70.47;39.00;;;;;;;2.89;96.52;101031.82;1789060;77;20989;-70
2021/01/04 12:27:18;;;;;;;75.65;40.10;;;;;;;2.95;96.91;101027.06;1805098;77;21574;-73